sensor_id;sensor_type;location;lat;lon;timestamp;pressure;altitude;pressure_sealevel;temperature;humidity
61571;BME280;47463;49.884;10.010;2023-05-10T00:00:01;101010;;;13.5;91
61571;BME280;47463;49.884;10.010;2023-05-10T00:05:01;101010;;;13.5;91
61571;BME280;47463;49.884;10.010;2023-05-10T00:10:01;101010;;;13.5;91
61571;BME280;47463;49.884;10.010;2023-05-10T00:15:01;101000;;;13.4;91
61571;BME280;47463;49.884;10.010;2023-05-10T00:20:01;101000;;;13.4;91
61571;BME280;47463;49.884;10.010;2023-05-10T00:25:01;101000;;;13.4;91
61571;BME280;47463;49.884;10.010;2023-05-10T00:30:01;100990;;;13.3;91
61571;BME280;47463;49.884;10.010;2023-05-10T00:35:01;100990;;;13.3;91
61571;BME280;47463;49.884;10.010;2023-05-10T00:40:01;100990;;;13.3;91
61571;BME280;47463;49.884;10.010;2023-05-10T00:45:01;100990;;;13.2;91
61571;BME280;47463;49.884;10.010;2023-05-10T00:50:01;100990;;;13.2;91
61571;BME280;47463;49.884;10.010;2023-05-10T00:55:01;100990;;;13.2;91
61571;BME280;47463;49.884;10.010;2023-05-10T01:00:01;100990;;;13.1;91
61571;BME280;47463;49.884;10.010;2023-05-10T01:05:01;100990;;;13.1;91
61571;BME280;47463;49.884;10.010;2023-05-10T01:10:01;100990;;;13.1;91
61571;BME280;47463;49.884;10.010;2023-05-10T01:15:01;100990;;;13.1;91
61571;BME280;47463;49.884;10.010;2023-05-10T01:20:01;100990;;;13.1;91
61571;BME280;47463;49.884;10.010;2023-05-10T01:25:06;101000;;;13.1;91
61571;BME280;47463;49.884;10.010;2023-05-10T01:30:08;101000;;;13.1;91
61571;BME280;47463;49.884;10.010;2023-05-10T01:35:02;101000;;;13.1;91
61571;BME280;47463;49.884;10.010;2023-05-10T01:40:03;101000;;;13.1;91
61571;BME280;47463;49.884;10.010;2023-05-10T01:45:02;101000;;;13.1;91
61571;BME280;47463;49.884;10.010;2023-05-10T01:50:01;101000;;;13.1;91
61571;BME280;47463;49.884;10.010;2023-05-10T01:55:01;101020;;;13.1;91
61571;BME280;47463;49.884;10.010;2023-05-10T02:00:01;101010;;;13;91
61571;BME280;47463;49.884;10.010;2023-05-10T02:05:01;101020;;;13;89
61571;BME280;47463;49.884;10.010;2023-05-10T02:10:01;101020;;;13;88
61571;BME280;47463;49.884;10.010;2023-05-10T02:15:01;101030;;;12.9;88
61571;BME280;47463;49.884;10.010;2023-05-10T02:20:01;101030;;;12.8;88
61571;BME280;47463;49.884;10.010;2023-05-10T02:25:01;101040;;;12.7;88
61571;BME280;47463;49.884;10.010;2023-05-10T02:30:01;101030;;;12.6;88
61571;BME280;47463;49.884;10.010;2023-05-10T02:35:01;101040;;;12.6;88
61571;BME280;47463;49.884;10.010;2023-05-10T02:40:01;101050;;;12.5;88
61571;BME280;47463;49.884;10.010;2023-05-10T02:45:01;101050;;;12.4;89
61571;BME280;47463;49.884;10.010;2023-05-10T02:50:01;101050;;;12.4;89
61571;BME280;47463;49.884;10.010;2023-05-10T02:55:01;101060;;;12.3;89
61571;BME280;47463;49.884;10.010;2023-05-10T03:00:01;101060;;;12.3;88
61571;BME280;47463;49.884;10.010;2023-05-10T03:05:01;101050;;;12.2;88
61571;BME280;47463;49.884;10.010;2023-05-10T03:10:01;101060;;;12.2;88
61571;BME280;47463;49.884;10.010;2023-05-10T03:15:03;101060;;;12.2;88
61571;BME280;47463;49.884;10.010;2023-05-10T03:20:03;101070;;;12.1;89
61571;BME280;47463;49.884;10.010;2023-05-10T03:25:01;101080;;;12;89
61571;BME280;47463;49.884;10.010;2023-05-10T03:30:01;101070;;;12;89
61571;BME280;47463;49.884;10.010;2023-05-10T03:35:01;101070;;;11.9;89
61571;BME280;47463;49.884;10.010;2023-05-10T03:40:01;101070;;;11.8;89
61571;BME280;47463;49.884;10.010;2023-05-10T03:45:01;101070;;;11.7;90
61571;BME280;47463;49.884;10.010;2023-05-10T03:50:01;101080;;;11.7;90
61571;BME280;47463;49.884;10.010;2023-05-10T03:55:01;101090;;;11.7;90
61571;BME280;47463;49.884;10.010;2023-05-10T04:00:01;101100;;;11.7;90
61571;BME280;47463;49.884;10.010;2023-05-10T04:05:01;101100;;;11.7;90
61571;BME280;47463;49.884;10.010;2023-05-10T04:10:01;101100;;;11.7;90
61571;BME280;47463;49.884;10.010;2023-05-10T04:15:01;101110;;;11.7;90
61571;BME280;47463;49.884;10.010;2023-05-10T04:20:01;101120;;;11.7;90
61571;BME280;47463;49.884;10.010;2023-05-10T04:25:01;101130;;;11.7;90
61571;BME280;47463;49.884;10.010;2023-05-10T04:30:01;101130;;;11.7;90
61571;BME280;47463;49.884;10.010;2023-05-10T04:35:01;101130;;;11.8;90
61571;BME280;47463;49.884;10.010;2023-05-10T04:40:01;101140;;;11.8;90
61571;BME280;47463;49.884;10.010;2023-05-10T04:45:01;101150;;;11.8;90
61571;BME280;47463;49.884;10.010;2023-05-10T04:50:01;101150;;;11.8;90
61571;BME280;47463;49.884;10.010;2023-05-10T04:55:01;101170;;;11.8;90
61571;BME280;47463;49.884;10.010;2023-05-10T05:00:01;101170;;;11.8;90
61571;BME280;47463;49.884;10.010;2023-05-10T05:05:01;101180;;;11.8;90
61571;BME280;47463;49.884;10.010;2023-05-10T05:10:01;101170;;;11.8;90
61571;BME280;47463;49.884;10.010;2023-05-10T05:15:01;101170;;;11.9;90
61571;BME280;47463;49.884;10.010;2023-05-10T05:20:01;101180;;;12;90
61571;BME280;47463;49.884;10.010;2023-05-10T05:25:01;101190;;;12;90
61571;BME280;47463;49.884;10.010;2023-05-10T05:30:01;101190;;;12.1;89
61571;BME280;47463;49.884;10.010;2023-05-10T05:35:01;101190;;;12.1;89
61571;BME280;47463;49.884;10.010;2023-05-10T05:40:01;101200;;;12.1;89
61571;BME280;47463;49.884;10.010;2023-05-10T05:45:01;101200;;;12.2;89
61571;BME280;47463;49.884;10.010;2023-05-10T05:50:01;101200;;;12.2;88
61571;BME280;47463;49.884;10.010;2023-05-10T05:55:01;101200;;;12.3;88
61571;BME280;47463;49.884;10.010;2023-05-10T06:00:01;101210;;;12.4;88
61571;BME280;47463;49.884;10.010;2023-05-10T06:05:01;101210;;;12.4;87
61571;BME280;47463;49.884;10.010;2023-05-10T06:10:01;101220;;;12.5;87
61571;BME280;47463;49.884;10.010;2023-05-10T06:15:01;101220;;;12.6;86
61571;BME280;47463;49.884;10.010;2023-05-10T06:20:01;101220;;;12.7;86
61571;BME280;47463;49.884;10.010;2023-05-10T06:25:01;101230;;;12.8;86
61571;BME280;47463;49.884;10.010;2023-05-10T06:30:01;101240;;;12.9;86
61571;BME280;47463;49.884;10.010;2023-05-10T06:35:01;101230;;;13.1;85
61571;BME280;47463;49.884;10.010;2023-05-10T06:40:01;101240;;;13.5;85
61571;BME280;47463;49.884;10.010;2023-05-10T06:45:01;101250;;;13.5;84
61571;BME280;47463;49.884;10.010;2023-05-10T06:50:01;101250;;;13.5;83
61571;BME280;47463;49.884;10.010;2023-05-10T06:55:01;101240;;;13.3;83
61571;BME280;47463;49.884;10.010;2023-05-10T07:00:01;101250;;;13.3;83
61571;BME280;47463;49.884;10.010;2023-05-10T07:05:01;101250;;;13.2;84
61571;BME280;47463;49.884;10.010;2023-05-10T07:10:01;101240;;;13.3;84
61571;BME280;47463;49.884;10.010;2023-05-10T07:15:01;101240;;;13.3;84
61571;BME280;47463;49.884;10.010;2023-05-10T07:20:01;101250;;;13.4;84
61571;BME280;47463;49.884;10.010;2023-05-10T07:25:01;101260;;;13.5;84
61571;BME280;47463;49.884;10.010;2023-05-10T07:30:01;101260;;;13.4;84
61571;BME280;47463;49.884;10.010;2023-05-10T07:35:01;101260;;;13.3;84
61571;BME280;47463;49.884;10.010;2023-05-10T07:40:01;101270;;;13.1;84
61571;BME280;47463;49.884;10.010;2023-05-10T07:45:01;101270;;;13.1;84
61571;BME280;47463;49.884;10.010;2023-05-10T07:50:01;101280;;;13;84
61571;BME280;47463;49.884;10.010;2023-05-10T07:55:01;101280;;;13;84
61571;BME280;47463;49.884;10.010;2023-05-10T08:00:01;101290;;;13.2;84
61571;BME280;47463;49.884;10.010;2023-05-10T08:05:01;101290;;;13.5;84
61571;BME280;47463;49.884;10.010;2023-05-10T08:10:01;101290;;;13.6;81
61571;BME280;47463;49.884;10.010;2023-05-10T08:15:01;101290;;;13.6;81
61571;BME280;47463;49.884;10.010;2023-05-10T08:20:01;101300;;;13.6;81
61571;BME280;47463;49.884;10.010;2023-05-10T08:25:01;101300;;;13.8;80
61571;BME280;47463;49.884;10.010;2023-05-10T08:30:01;101310;;;13.9;80
61571;BME280;47463;49.884;10.010;2023-05-10T08:35:01;101310;;;14;78
61571;BME280;47463;49.884;10.010;2023-05-10T08:40:01;101330;;;14;78
61571;BME280;47463;49.884;10.010;2023-05-10T08:45:01;101320;;;14.2;78
61571;BME280;47463;49.884;10.010;2023-05-10T08:50:01;101320;;;14.2;78
61571;BME280;47463;49.884;10.010;2023-05-10T08:55:01;101320;;;14.4;78
61571;BME280;47463;49.884;10.010;2023-05-10T09:00:01;101330;;;14.3;76
61571;BME280;47463;49.884;10.010;2023-05-10T09:05:01;101330;;;14.4;77
61571;BME280;47463;49.884;10.010;2023-05-10T09:10:01;101330;;;14.5;76
61571;BME280;47463;49.884;10.010;2023-05-10T09:15:01;101340;;;14.5;76
61571;BME280;47463;49.884;10.010;2023-05-10T09:20:01;101340;;;14.4;76
61571;BME280;47463;49.884;10.010;2023-05-10T09:25:05;101350;;;14.5;76
61571;BME280;47463;49.884;10.010;2023-05-10T09:30:01;101350;;;14.7;76
61571;BME280;47463;49.884;10.010;2023-05-10T09:35:05;101350;;;14.6;75
61571;BME280;47463;49.884;10.010;2023-05-10T09:40:03;101350;;;14.6;76
61571;BME280;47463;49.884;10.010;2023-05-10T09:45:02;101350;;;14.5;74
61571;BME280;47463;49.884;10.010;2023-05-10T09:50:01;101360;;;14.4;75
61571;BME280;47463;49.884;10.010;2023-05-10T09:55:01;101360;;;14.5;75
61571;BME280;47463;49.884;10.010;2023-05-10T10:00:01;101360;;;15;74
61571;BME280;47463;49.884;10.010;2023-05-10T10:05:01;101360;;;15.2;74
61571;BME280;47463;49.884;10.010;2023-05-10T10:10:01;101340;;;15.1;73
61571;BME280;47463;49.884;10.010;2023-05-10T10:15:01;101350;;;14.9;73
61571;BME280;47463;49.884;10.010;2023-05-10T10:20:02;101350;;;15.1;73
61571;BME280;47463;49.884;10.010;2023-05-10T10:25:01;101340;;;15.6;72
61571;BME280;47463;49.884;10.010;2023-05-10T10:30:02;101340;;;15.9;70
61571;BME280;47463;49.884;10.010;2023-05-10T10:35:01;101330;;;15.9;69
61571;BME280;47463;49.884;10.010;2023-05-10T10:40:01;101340;;;15.8;69
61571;BME280;47463;49.884;10.010;2023-05-10T10:45:11;101340;;;15.9;69
61571;BME280;47463;49.884;10.010;2023-05-10T10:50:02;101340;;;16.1;69
61571;BME280;47463;49.884;10.010;2023-05-10T10:55:02;101340;;;16.5;67
61571;BME280;47463;49.884;10.010;2023-05-10T11:00:32;101340;;;16.3;67
61571;BME280;47463;49.884;10.010;2023-05-10T11:05:22;101330;;;16;68
61571;BME280;47463;49.884;10.010;2023-05-10T11:10:03;101340;;;15.8;68
61571;BME280;47463;49.884;10.010;2023-05-10T11:15:01;101340;;;15.8;68
61571;BME280;47463;49.884;10.010;2023-05-10T11:20:03;101340;;;16;69
61571;BME280;47463;49.884;10.010;2023-05-10T11:25:01;101330;;;16.4;68
61571;BME280;47463;49.884;10.010;2023-05-10T11:30:01;101330;;;16.2;66
61571;BME280;47463;49.884;10.010;2023-05-10T11:35:05;101330;;;16.5;66
61571;BME280;47463;49.884;10.010;2023-05-10T11:40:01;101330;;;16.4;67
61571;BME280;47463;49.884;10.010;2023-05-10T11:45:01;101330;;;16.5;66
61571;BME280;47463;49.884;10.010;2023-05-10T11:50:01;101330;;;16.1;67
61571;BME280;47463;49.884;10.010;2023-05-10T11:55:01;101340;;;15.9;67
61571;BME280;47463;49.884;10.010;2023-05-10T12:00:01;101340;;;15.9;68
61571;BME280;47463;49.884;10.010;2023-05-10T12:05:01;101330;;;15.9;68
61571;BME280;47463;49.884;10.010;2023-05-10T12:10:02;101330;;;15.8;65
61571;BME280;47463;49.884;10.010;2023-05-10T12:15:01;101330;;;16;65
61571;BME280;47463;49.884;10.010;2023-05-10T12:20:12;101340;;;16;65
61571;BME280;47463;49.884;10.010;2023-05-10T12:25:01;101340;;;16;65
61571;BME280;47463;49.884;10.010;2023-05-10T12:30:01;101340;;;16;66
61571;BME280;47463;49.884;10.010;2023-05-10T12:35:03;101340;;;16.2;66
61571;BME280;47463;49.884;10.010;2023-05-10T12:40:01;101350;;;16.5;66
61571;BME280;47463;49.884;10.010;2023-05-10T12:45:01;101350;;;16.8;64
61571;BME280;47463;49.884;10.010;2023-05-10T12:50:01;101360;;;16.9;64
61571;BME280;47463;49.884;10.010;2023-05-10T12:55:01;101350;;;16.9;64
61571;BME280;47463;49.884;10.010;2023-05-10T13:00:01;101350;;;16.8;64
61571;BME280;47463;49.884;10.010;2023-05-10T13:05:01;101350;;;15.8;65
61571;BME280;47463;49.884;10.010;2023-05-10T13:10:01;101370;;;15.4;65
61571;BME280;47463;49.884;10.010;2023-05-10T13:15:01;101380;;;15.1;67
61571;BME280;47463;49.884;10.010;2023-05-10T13:20:01;101380;;;15;68
61571;BME280;47463;49.884;10.010;2023-05-10T13:25:01;101390;;;14.9;69
61571;BME280;47463;49.884;10.010;2023-05-10T13:30:01;101390;;;14.8;70
61571;BME280;47463;49.884;10.010;2023-05-10T13:35:01;101400;;;14.8;69
61571;BME280;47463;49.884;10.010;2023-05-10T13:40:01;101380;;;14.9;68
61571;BME280;47463;49.884;10.010;2023-05-10T13:45:01;101400;;;14.8;68
61571;BME280;47463;49.884;10.010;2023-05-10T13:50:01;101400;;;14.8;70
61571;BME280;47463;49.884;10.010;2023-05-10T13:55:01;101410;;;14.5;72
61571;BME280;47463;49.884;10.010;2023-05-10T14:00:01;101410;;;14.2;74
61571;BME280;47463;49.884;10.010;2023-05-10T14:05:01;101400;;;14;76
61571;BME280;47463;49.884;10.010;2023-05-10T14:10:01;101410;;;14;77
61571;BME280;47463;49.884;10.010;2023-05-10T14:15:01;101410;;;14;78
61571;BME280;47463;49.884;10.010;2023-05-10T14:20:01;101400;;;14.2;77
61571;BME280;47463;49.884;10.010;2023-05-10T14:25:01;101400;;;14.3;78
61571;BME280;47463;49.884;10.010;2023-05-10T14:30:01;101400;;;14.4;77
61571;BME280;47463;49.884;10.010;2023-05-10T14:35:01;101400;;;14.4;77
61571;BME280;47463;49.884;10.010;2023-05-10T14:40:01;101400;;;14.4;77
61571;BME280;47463;49.884;10.010;2023-05-10T14:45:01;101390;;;14.6;77
61571;BME280;47463;49.884;10.010;2023-05-10T14:50:01;101400;;;14.4;76
61571;BME280;47463;49.884;10.010;2023-05-10T14:55:01;101400;;;14.3;76
61571;BME280;47463;49.884;10.010;2023-05-10T15:00:01;101400;;;14.4;77
61571;BME280;47463;49.884;10.010;2023-05-10T15:05:01;101400;;;14.3;77
61571;BME280;47463;49.884;10.010;2023-05-10T15:10:01;101410;;;14.2;77
61571;BME280;47463;49.884;10.010;2023-05-10T15:15:01;101410;;;14;78
61571;BME280;47463;49.884;10.010;2023-05-10T15:20:01;101410;;;13.9;77
61571;BME280;47463;49.884;10.010;2023-05-10T15:25:01;101410;;;13.8;78
61571;BME280;47463;49.884;10.010;2023-05-10T15:30:01;101410;;;13.7;78
61571;BME280;47463;49.884;10.010;2023-05-10T15:35:01;101400;;;13.7;79
61571;BME280;47463;49.884;10.010;2023-05-10T15:40:01;101410;;;13.7;79
61571;BME280;47463;49.884;10.010;2023-05-10T15:45:01;101410;;;13.8;80
61571;BME280;47463;49.884;10.010;2023-05-10T15:50:01;101410;;;13.7;81
61571;BME280;47463;49.884;10.010;2023-05-10T15:55:01;101420;;;13.7;82
61571;BME280;47463;49.884;10.010;2023-05-10T16:00:01;101420;;;13.7;82
61571;BME280;47463;49.884;10.010;2023-05-10T16:05:01;101420;;;13.8;83
61571;BME280;47463;49.884;10.010;2023-05-10T16:10:01;101430;;;13.8;84
61571;BME280;47463;49.884;10.010;2023-05-10T16:15:01;101430;;;13.8;84
61571;BME280;47463;49.884;10.010;2023-05-10T16:20:01;101430;;;13.9;84
61571;BME280;47463;49.884;10.010;2023-05-10T16:25:01;101440;;;13.9;84
61571;BME280;47463;49.884;10.010;2023-05-10T16:30:01;101440;;;14;84
61571;BME280;47463;49.884;10.010;2023-05-10T16:35:01;101440;;;14;84
61571;BME280;47463;49.884;10.010;2023-05-10T16:40:01;101440;;;14.1;84
61571;BME280;47463;49.884;10.010;2023-05-10T16:45:01;101430;;;14.1;83
61571;BME280;47463;49.884;10.010;2023-05-10T16:50:01;101440;;;14.1;83
61571;BME280;47463;49.884;10.010;2023-05-10T16:55:01;101440;;;14.2;83
61571;BME280;47463;49.884;10.010;2023-05-10T17:00:01;101440;;;14.2;83
61571;BME280;47463;49.884;10.010;2023-05-10T17:05:01;101450;;;14.2;83
61571;BME280;47463;49.884;10.010;2023-05-10T17:10:01;101440;;;14.3;83
61571;BME280;47463;49.884;10.010;2023-05-10T17:15:01;101440;;;14.3;83
61571;BME280;47463;49.884;10.010;2023-05-10T17:20:01;101450;;;14.4;83
61571;BME280;47463;49.884;10.010;2023-05-10T17:25:01;101440;;;14.4;83
61571;BME280;47463;49.884;10.010;2023-05-10T17:30:01;101440;;;14.4;82
61571;BME280;47463;49.884;10.010;2023-05-10T17:35:01;101450;;;14.4;82
61571;BME280;47463;49.884;10.010;2023-05-10T17:40:01;101460;;;14.4;82
61571;BME280;47463;49.884;10.010;2023-05-10T17:45:01;101460;;;14.4;82
61571;BME280;47463;49.884;10.010;2023-05-10T17:50:01;101460;;;14.4;82
61571;BME280;47463;49.884;10.010;2023-05-10T17:55:01;101470;;;14.3;82
61571;BME280;47463;49.884;10.010;2023-05-10T18:00:01;101470;;;14.3;82
61571;BME280;47463;49.884;10.010;2023-05-10T18:05:01;101480;;;14.2;82
61571;BME280;47463;49.884;10.010;2023-05-10T18:10:01;101490;;;14.2;81
61571;BME280;47463;49.884;10.010;2023-05-10T18:15:01;101490;;;14.1;79
61571;BME280;47463;49.884;10.010;2023-05-10T18:20:01;101500;;;14;79
61571;BME280;47463;49.884;10.010;2023-05-10T18:25:01;101500;;;13.8;79
61571;BME280;47463;49.884;10.010;2023-05-10T18:30:01;101490;;;13.7;79
61571;BME280;47463;49.884;10.010;2023-05-10T18:35:01;101500;;;13.6;79
61571;BME280;47463;49.884;10.010;2023-05-10T18:40:01;101500;;;13.5;80
61571;BME280;47463;49.884;10.010;2023-05-10T18:45:01;101500;;;13.4;80
61571;BME280;47463;49.884;10.010;2023-05-10T18:50:01;101510;;;13.4;80
61571;BME280;47463;49.884;10.010;2023-05-10T18:55:01;101510;;;13.3;80
61571;BME280;47463;49.884;10.010;2023-05-10T19:00:01;101510;;;13.2;81
61571;BME280;47463;49.884;10.010;2023-05-10T19:05:01;101500;;;13.1;81
61571;BME280;47463;49.884;10.010;2023-05-10T19:10:01;101510;;;13;81
61571;BME280;47463;49.884;10.010;2023-05-10T19:15:01;101520;;;13;81
61571;BME280;47463;49.884;10.010;2023-05-10T19:20:01;101520;;;12.9;81
61571;BME280;47463;49.884;10.010;2023-05-10T19:25:01;101520;;;12.9;82
61571;BME280;47463;49.884;10.010;2023-05-10T19:30:01;101530;;;12.8;82
61571;BME280;47463;49.884;10.010;2023-05-10T19:35:01;101529.9999;;;12.7;83
61571;BME280;47463;49.884;10.010;2023-05-10T19:40:01;101540;;;12.6;82
61571;BME280;47463;49.884;10.010;2023-05-10T19:45:01;101550;;;12.8;81
61571;BME280;47463;49.884;10.010;2023-05-10T19:50:01;101540;;;12.8;81
61571;BME280;47463;49.884;10.010;2023-05-10T19:55:01;101550;;;12.8;80
61571;BME280;47463;49.884;10.010;2023-05-10T20:00:01;101550;;;12.8;80
61571;BME280;47463;49.884;10.010;2023-05-10T20:05:01;101540;;;12.8;79
61571;BME280;47463;49.884;10.010;2023-05-10T20:10:01;101560;;;12.8;79
61571;BME280;47463;49.884;10.010;2023-05-10T20:15:01;101560;;;12.6;79
61571;BME280;47463;49.884;10.010;2023-05-10T20:20:01;101560;;;12.6;78
61571;BME280;47463;49.884;10.010;2023-05-10T20:25:01;101570;;;12.5;79
61571;BME280;47463;49.884;10.010;2023-05-10T20:30:01;101570;;;12.4;80
61571;BME280;47463;49.884;10.010;2023-05-10T20:35:01;101580;;;12.3;81
61571;BME280;47463;49.884;10.010;2023-05-10T20:40:01;101570;;;12.3;80
61571;BME280;47463;49.884;10.010;2023-05-10T20:45:01;101570;;;12.3;80
61571;BME280;47463;49.884;10.010;2023-05-10T20:50:01;101570;;;12.3;80
61571;BME280;47463;49.884;10.010;2023-05-10T20:55:01;101570;;;12.4;79
61571;BME280;47463;49.884;10.010;2023-05-10T21:00:01;101580;;;12.4;79
61571;BME280;47463;49.884;10.010;2023-05-10T21:05:01;101570;;;12.3;79
61571;BME280;47463;49.884;10.010;2023-05-10T21:10:01;101570;;;12.3;79
61571;BME280;47463;49.884;10.010;2023-05-10T21:15:01;101560;;;12.2;79
61571;BME280;47463;49.884;10.010;2023-05-10T21:20:01;101560;;;12.2;79
61571;BME280;47463;49.884;10.010;2023-05-10T21:25:01;101570;;;12.3;77
61571;BME280;47463;49.884;10.010;2023-05-10T21:30:01;101560;;;12.2;78
61571;BME280;47463;49.884;10.010;2023-05-10T21:35:01;101560;;;12.2;78
61571;BME280;47463;49.884;10.010;2023-05-10T21:40:01;101560;;;12.1;78
61571;BME280;47463;49.884;10.010;2023-05-10T21:45:01;101560;;;12;78
61571;BME280;47463;49.884;10.010;2023-05-10T21:50:01;101560;;;11.9;78
61571;BME280;47463;49.884;10.010;2023-05-10T21:55:01;101550;;;11.8;78
61571;BME280;47463;49.884;10.010;2023-05-10T22:00:01;101560;;;11.8;78
61571;BME280;47463;49.884;10.010;2023-05-10T22:05:01;101560;;;11.7;78
61571;BME280;47463;49.884;10.010;2023-05-10T22:10:01;101560;;;11.5;79
61571;BME280;47463;49.884;10.010;2023-05-10T22:15:01;101560;;;11.5;79
61571;BME280;47463;49.884;10.010;2023-05-10T22:20:01;101560;;;11.4;79
61571;BME280;47463;49.884;10.010;2023-05-10T22:25:01;101550;;;11.4;79
61571;BME280;47463;49.884;10.010;2023-05-10T22:30:01;101560;;;11.5;78
61571;BME280;47463;49.884;10.010;2023-05-10T22:35:01;101570;;;11.5;78
61571;BME280;47463;49.884;10.010;2023-05-10T22:40:01;101570;;;11.5;77
61571;BME280;47463;49.884;10.010;2023-05-10T22:45:01;101560;;;11.5;76
61571;BME280;47463;49.884;10.010;2023-05-10T22:50:01;101560;;;11.5;77
61571;BME280;47463;49.884;10.010;2023-05-10T22:55:01;101560;;;11.5;77
61571;BME280;47463;49.884;10.010;2023-05-10T23:00:01;101560;;;11.3;77
61571;BME280;47463;49.884;10.010;2023-05-10T23:05:01;101560;;;11.2;77
61571;BME280;47463;49.884;10.010;2023-05-10T23:10:01;101550;;;11.1;78
61571;BME280;47463;49.884;10.010;2023-05-10T23:15:01;101560;;;11;78
61571;BME280;47463;49.884;10.010;2023-05-10T23:20:01;101540;;;11.1;78
61571;BME280;47463;49.884;10.010;2023-05-10T23:25:01;101550;;;11.2;77
61571;BME280;47463;49.884;10.010;2023-05-10T23:30:01;101560;;;11.3;76
61571;BME280;47463;49.884;10.010;2023-05-10T23:35:01;101580;;;11.3;76
61571;BME280;47463;49.884;10.010;2023-05-10T23:40:01;101570;;;11.3;76
61571;BME280;47463;49.884;10.010;2023-05-10T23:45:01;101580;;;11.2;77
61571;BME280;47463;49.884;10.010;2023-05-10T23:50:01;101570;;;11.2;77
61571;BME280;47463;49.884;10.010;2023-05-10T23:55:01;101570;;;11.2;77
